Time;durP1;ratioP1;P1;durP2;ratioP2;P2;SDS_P1;SDS_P2;PMS_P1;PMS_P2;Temp;Humidity;BMP_temperature;BMP_pressure;BME280_temperature;BME280_humidity;BME280_pressure;Samples;Min_cycle;Max_cycle;Signal;HPM_P1;HPM_P2
2022/12/06 00:02:00;;;;;;;8.37;5.77;;;;;;;-142.25;100.00;58004.16;5028739;28;20041;-59
2022/12/06 00:04:26;;;;;;;8.53;5.57;;;;;;;-142.25;100.00;58004.16;5025790;28;20409;-60
2022/12/06 00:06:51;;;;;;;6.87;5.03;;;;;;;-142.25;100.00;58004.16;5028476;28;20045;-59
2022/12/06 00:09:28;;;;;;;8.40;5.93;;;;;;;-142.25;100.00;58004.16;5032117;28;20042;-61
2022/12/06 00:11:55;;;;;;;8.40;5.50;;;;;;;-142.25;100.00;58004.16;5032472;28;20048;-61
2022/12/06 00:14:21;;;;;;;7.77;5.83;;;;;;;-142.25;100.00;58004.16;5031407;28;20095;-61
2022/12/06 00:16:47;;;;;;;16.27;9.67;;;;;;;-142.25;100.00;58004.16;5031327;28;20053;-61
2022/12/06 00:19:15;;;;;;;29.70;14.97;;;;;;;-142.25;100.00;58004.16;5031397;28;20058;-61
2022/12/06 00:21:42;;;;;;;15.17;8.20;;;;;;;-142.25;100.00;58004.16;5031905;28;20038;-60
2022/12/06 00:24:11;;;;;;;11.07;6.70;;;;;;;-142.25;100.00;58004.16;5028105;28;20045;-61
2022/12/06 00:26:39;;;;;;;10.50;6.67;;;;;;;-142.25;100.00;58004.16;5030946;28;20072;-60
2022/12/06 00:29:06;;;;;;;8.23;5.87;;;;;;;-142.25;100.00;58004.16;5034245;28;20053;-60
2022/12/06 00:31:34;;;;;;;10.73;7.43;;;;;;;-142.25;100.00;58004.16;5029682;28;20223;-61
2022/12/06 00:34:00;;;;;;;11.07;7.23;;;;;;;-142.25;100.00;58004.16;5045845;28;20053;-60
2022/12/06 00:36:28;;;;;;;9.20;6.47;;;;;;;-142.25;100.00;58004.16;5030399;28;20053;-61
2022/12/06 00:38:54;;;;;;;9.70;6.47;;;;;;;-142.25;100.00;58004.16;5029649;28;20045;-60
2022/12/06 00:41:23;;;;;;;10.47;6.57;;;;;;;-142.25;100.00;58004.16;5031450;28;20064;-61
2022/12/06 00:43:51;;;;;;;10.67;6.37;;;;;;;-142.25;100.00;58004.16;5031648;28;20086;-60
2022/12/06 00:46:23;;;;;;;10.03;6.27;;;;;;;-142.25;100.00;58004.16;5030801;28;20049;-59
2022/12/06 00:48:50;;;;;;;14.33;7.90;;;;;;;-142.25;100.00;58004.16;5031289;28;20171;-60
2022/12/06 00:51:17;;;;;;;7.37;5.87;;;;;;;-142.25;100.00;58004.16;5031130;28;20568;-59
2022/12/06 00:53:44;;;;;;;10.60;5.90;;;;;;;-142.25;100.00;58004.16;5029337;28;20582;-61
2022/12/06 00:56:09;;;;;;;10.63;6.53;;;;;;;-142.25;100.00;58004.16;5029772;28;20402;-60
2022/12/06 00:58:36;;;;;;;16.90;8.00;;;;;;;-142.25;100.00;58004.16;5045799;28;20045;-61
2022/12/06 01:01:17;;;;;;;19.40;9.80;;;;;;;-142.25;100.00;58004.16;5031168;28;20810;-61
2022/12/06 01:03:44;;;;;;;14.73;7.53;;;;;;;-142.25;100.00;58004.16;5031528;28;20043;-58
2022/12/06 01:06:14;;;;;;;13.03;8.23;;;;;;;-142.25;100.00;58004.16;5026201;28;20533;-60
2022/12/06 01:08:41;;;;;;;14.07;9.23;;;;;;;-142.25;100.00;58004.16;5028022;28;20081;-58
2022/12/06 01:11:07;;;;;;;14.83;9.03;;;;;;;-142.25;100.00;58004.16;5033801;28;20665;-61
2022/12/06 01:13:33;;;;;;;14.43;8.20;;;;;;;-142.25;100.00;58004.16;5034749;28;20037;-61
2022/12/06 01:16:11;;;;;;;13.90;8.23;;;;;;;-142.25;100.00;58004.16;5033098;28;20037;-60
2022/12/06 01:18:38;;;;;;;13.47;8.23;;;;;;;-142.25;100.00;58004.16;5033533;28;20045;-59
2022/12/06 01:21:06;;;;;;;11.27;7.83;;;;;;;-142.25;100.00;58004.16;5032775;28;20085;-60
2022/12/06 01:23:32;;;;;;;13.93;7.57;;;;;;;-142.25;100.00;58004.16;5033330;28;20041;-60
2022/12/06 01:25:58;;;;;;;19.63;8.67;;;;;;;-142.25;100.00;58004.16;5034870;28;20041;-60
2022/12/06 01:28:23;;;;;;;12.57;6.60;;;;;;;-142.25;100.00;58004.16;5037803;28;20052;-60
2022/12/06 01:30:49;;;;;;;13.27;6.50;;;;;;;-142.25;100.00;58004.16;5033734;28;20040;-60
2022/12/06 01:33:14;;;;;;;15.27;7.87;;;;;;;-142.25;100.00;58004.16;5034333;28;20048;-59
2022/12/06 01:35:41;;;;;;;13.37;6.80;;;;;;;-142.25;100.00;58004.16;5032656;28;20092;-60
2022/12/06 01:38:08;;;;;;;11.33;6.93;;;;;;;-142.25;100.00;58004.16;5034333;28;20049;-59
2022/12/06 01:40:44;;;;;;;12.27;7.20;;;;;;;-142.25;100.00;58004.16;5033996;28;20521;-60
2022/12/06 01:43:42;;;;;;;11.50;7.57;;;;;;;-142.25;100.00;58004.16;5033760;28;20330;-60
2022/12/06 01:46:29;;;;;;;12.13;7.47;;;;;;;-142.25;100.00;58004.16;5034913;28;20061;-60
2022/12/06 01:49:06;;;;;;;13.33;7.30;;;;;;;-142.25;100.00;58004.16;5033838;28;20117;-61
2022/12/06 01:51:33;;;;;;;11.13;7.03;;;;;;;-142.25;100.00;58004.16;5035121;28;20037;-61
2022/12/06 01:54:02;;;;;;;15.23;8.33;;;;;;;-142.25;100.00;58004.16;5034082;28;20549;-60
2022/12/06 01:56:29;;;;;;;14.17;8.07;;;;;;;-142.25;100.00;58004.16;5037183;28;20155;-59
2022/12/06 01:58:57;;;;;;;10.07;7.57;;;;;;;-142.25;100.00;58004.16;5034834;28;20053;-61
2022/12/06 02:01:25;;;;;;;16.03;8.93;;;;;;;-142.25;100.00;58004.16;5036513;28;20515;-61
2022/12/06 02:03:54;;;;;;;13.07;7.60;;;;;;;-142.25;100.00;58004.16;5036371;28;20080;-60
2022/12/06 02:06:20;;;;;;;13.30;8.60;;;;;;;-142.25;100.00;58004.16;5036080;28;20040;-60
2022/12/06 02:08:46;;;;;;;14.53;9.73;;;;;;;-142.25;100.00;58004.16;5035522;28;20053;-59
2022/12/06 02:11:11;;;;;;;17.23;11.00;;;;;;;-142.25;100.00;58004.16;5034308;28;20098;-60
2022/12/06 02:13:38;;;;;;;16.23;8.67;;;;;;;-142.25;100.00;58004.16;5033151;28;20071;-59
2022/12/06 02:16:28;;;;;;;14.07;8.73;;;;;;;-142.25;100.00;58004.16;5036928;28;20053;-60
2022/12/06 02:19:06;;;;;;;12.23;8.43;;;;;;;-142.25;100.00;58004.16;5028932;28;20051;-59
2022/12/06 02:22:01;;;;;;;15.27;9.17;;;;;;;-142.25;100.00;58004.16;5025885;28;20485;-59
2022/12/06 02:24:32;;;;;;;16.40;8.87;;;;;;;-142.25;100.00;58004.16;5034538;28;20190;-59
2022/12/06 02:27:23;;;;;;;15.30;7.33;;;;;;;-142.25;100.00;58004.16;5033474;28;20606;-59
2022/12/06 02:30:08;;;;;;;17.73;8.77;;;;;;;-142.25;100.00;58004.16;5033518;28;20087;-64
2022/12/06 02:32:57;;;;;;;16.03;9.00;;;;;;;-142.25;100.00;58004.16;5032933;28;20045;-58
2022/12/06 02:35:37;;;;;;;13.73;7.97;;;;;;;-142.25;100.00;58004.16;5035187;28;20059;-61
2022/12/06 02:38:12;;;;;;;11.23;7.40;;;;;;;-142.25;100.00;58004.16;5033207;28;20045;-62
2022/12/06 02:40:43;;;;;;;13.67;7.80;;;;;;;-142.25;100.00;58004.16;5033091;28;20048;-59
2022/12/06 02:43:19;;;;;;;14.03;7.90;;;;;;;-142.25;100.00;58004.16;5033269;28;20759;-60
2022/12/06 02:45:52;;;;;;;12.03;7.30;;;;;;;-142.25;100.00;58004.16;5032269;28;20052;-59
2022/12/06 02:48:20;;;;;;;14.73;8.00;;;;;;;-142.25;100.00;58004.16;5031824;28;20044;-59
2022/12/06 02:50:52;;;;;;;14.50;9.93;;;;;;;-142.25;100.00;58004.16;5032620;28;20150;-59
2022/12/06 02:53:21;;;;;;;13.03;8.33;;;;;;;-142.25;100.00;58004.16;5033075;28;20473;-59
2022/12/06 02:55:48;;;;;;;12.70;8.77;;;;;;;-142.25;100.00;58004.16;5032889;28;20479;-59
2022/12/06 02:58:14;;;;;;;14.50;8.67;;;;;;;-142.25;100.00;58004.16;5030319;28;20049;-59
2022/12/06 03:00:41;;;;;;;14.13;8.07;;;;;;;-142.25;100.00;58004.16;5027183;28;20051;-58
2022/12/06 03:03:13;;;;;;;15.07;8.87;;;;;;;-142.25;100.00;58004.16;5029634;28;20041;-58
2022/12/06 03:05:52;;;;;;;12.73;7.40;;;;;;;-142.25;100.00;58004.16;5034198;28;20044;-60
2022/12/06 03:08:41;;;;;;;13.50;9.50;;;;;;;-142.25;100.00;58004.16;5031961;28;20037;-59
2022/12/06 03:11:08;;;;;;;12.90;8.23;;;;;;;-142.25;100.00;58004.16;5033874;28;20052;-59
2022/12/06 03:14:01;;;;;;;16.07;8.30;;;;;;;-142.25;100.00;58004.16;5031173;28;20033;-59
2022/12/06 03:16:29;;;;;;;12.83;7.73;;;;;;;-142.25;100.00;58004.16;5032093;28;20139;-59
2022/12/06 03:19:12;;;;;;;16.83;8.47;;;;;;;-142.25;100.00;58004.16;5033041;28;20487;-59
2022/12/06 03:21:47;;;;;;;12.40;7.77;;;;;;;-142.25;100.00;58004.16;5032664;28;20036;-60
2022/12/06 03:24:15;;;;;;;14.03;8.70;;;;;;;-142.25;100.00;58004.16;5031489;28;20045;-60
2022/12/06 03:26:44;;;;;;;15.83;8.50;;;;;;;-142.25;100.00;58004.16;5032468;28;20170;-59
2022/12/06 03:29:14;;;;;;;15.97;8.27;;;;;;;-142.25;100.00;58004.16;5033094;28;20052;-58
2022/12/06 03:31:42;;;;;;;14.67;8.27;;;;;;;-142.25;100.00;58004.16;5032909;28;20095;-60
2022/12/06 03:34:29;;;;;;;14.67;8.37;;;;;;;-142.25;100.00;58004.16;5031599;28;20074;-58
2022/12/06 03:36:55;;;;;;;11.43;7.70;;;;;;;-142.25;100.00;58004.16;5032936;28;20524;-59
2022/12/06 03:39:40;;;;;;;14.27;7.20;;;;;;;-142.25;100.00;58004.16;5033421;28;20056;-60
2022/12/06 03:42:07;;;;;;;13.93;8.20;;;;;;;-142.25;100.00;58004.16;5031310;28;20664;-60
2022/12/06 03:44:33;;;;;;;11.87;6.90;;;;;;;-142.25;100.00;58004.16;5026694;28;20052;-61
2022/12/06 03:47:13;;;;;;;12.90;8.50;;;;;;;-142.25;100.00;58004.16;5031267;28;20059;-60
2022/12/06 03:49:47;;;;;;;11.37;7.80;;;;;;;-142.25;100.00;58004.16;5033192;28;20041;-60
2022/12/06 03:52:12;;;;;;;13.70;7.23;;;;;;;-142.25;100.00;58004.16;5050205;28;21184;-60
2022/12/06 03:54:39;;;;;;;13.07;6.93;;;;;;;-142.25;100.00;58004.16;5033325;28;20472;-60
2022/12/06 03:57:05;;;;;;;15.27;8.47;;;;;;;-142.25;100.00;58004.16;5031777;28;20072;-61
2022/12/06 03:59:31;;;;;;;11.17;7.23;;;;;;;-142.25;100.00;58004.16;5032415;28;20068;-60
2022/12/06 04:01:57;;;;;;;12.77;7.20;;;;;;;-142.25;100.00;58004.16;5032508;28;20038;-60
2022/12/06 04:04:23;;;;;;;12.30;7.80;;;;;;;-142.25;100.00;58004.16;5033306;28;20048;-60
2022/12/06 04:06:51;;;;;;;16.87;8.93;;;;;;;-142.25;100.00;58004.16;5033120;28;20045;-60
2022/12/06 04:12:01;;;;;;;13.20;7.80;;;;;;;-142.25;100.00;58004.16;5033544;28;20055;-60
2022/12/06 04:14:31;;;;;;;12.97;7.97;;;;;;;-142.25;100.00;58004.16;5032850;28;20045;-58
2022/12/06 04:19:41;;;;;;;10.18;6.78;;;;;;;-142.25;100.00;58004.16;5033191;28;20160;-59
2022/12/06 04:24:52;;;;;;;8.37;5.67;;;;;;;-142.25;100.00;58004.16;5033632;28;20124;-59
2022/12/06 04:41:00;;;;;;;1.93;1.73;;;;;;;-142.25;100.00;58004.16;5031276;28;20045;-59
2022/12/06 04:43:40;;;;;;;2.37;2.07;;;;;;;-142.25;100.00;58004.16;5026161;28;20040;-59
2022/12/06 04:46:07;;;;;;;2.47;2.20;;;;;;;-142.25;100.00;58004.16;5030383;28;20053;-62
2022/12/06 04:48:33;;;;;;;2.20;2.00;;;;;;;-142.25;100.00;58004.16;5030370;28;20092;-59
2022/12/06 04:50:58;;;;;;;2.00;1.80;;;;;;;-142.25;100.00;58004.16;5046220;28;20045;-58
2022/12/06 04:53:24;;;;;;;2.73;1.73;;;;;;;-142.25;100.00;58004.16;5033629;28;20135;-58
2022/12/06 04:55:51;;;;;;;3.70;2.33;;;;;;;-142.25;100.00;58004.16;5034951;28;20033;-58
2022/12/06 04:58:17;;;;;;;3.77;2.43;;;;;;;-142.25;100.00;58004.16;5035938;28;20441;-60
2022/12/06 05:00:43;;;;;;;3.23;2.60;;;;;;;-142.25;100.00;58004.16;5035928;28;20147;-59
2022/12/06 05:03:13;;;;;;;4.20;2.60;;;;;;;-142.25;100.00;58004.16;5034812;28;20476;-58
2022/12/06 05:05:39;;;;;;;4.73;3.37;;;;;;;-142.25;100.00;58004.16;5035501;28;20155;-59
2022/12/06 05:08:05;;;;;;;6.47;3.83;;;;;;;-142.25;100.00;58004.16;5039133;28;20518;-59
2022/12/06 05:10:31;;;;;;;4.93;4.13;;;;;;;-142.25;100.00;58004.16;5036377;28;20049;-59
2022/12/06 05:12:58;;;;;;;6.23;4.73;;;;;;;-142.25;100.00;58004.16;5036680;28;20037;-59
2022/12/06 05:15:24;;;;;;;4.03;2.50;;;;;;;-142.25;100.00;58004.16;5036572;28;20037;-59
2022/12/06 05:17:49;;;;;;;2.77;2.17;;;;;;;-142.25;100.00;58004.16;5036018;28;20036;-58
2022/12/06 05:20:15;;;;;;;5.60;2.83;;;;;;;-142.25;100.00;58004.16;5035409;28;20049;-58
2022/12/06 05:22:41;;;;;;;2.43;2.10;;;;;;;-142.25;100.00;58004.16;5036013;28;20055;-59
2022/12/06 05:25:07;;;;;;;2.87;2.30;;;;;;;-142.25;100.00;58004.16;5032831;28;20049;-58
2022/12/06 05:27:33;;;;;;;2.53;2.23;;;;;;;-142.25;100.00;58004.16;5029105;28;20044;-59
2022/12/06 05:29:58;;;;;;;1.20;1.10;;;;;;;-142.25;100.00;58004.16;5030340;28;20557;-59
2022/12/06 05:32:24;;;;;;;0.93;0.83;;;;;;;-142.25;100.00;58004.16;5031310;28;20126;-58
2022/12/06 05:34:49;;;;;;;1.10;0.90;;;;;;;-142.25;100.00;58004.16;5037425;28;20053;-58
2022/12/06 05:37:15;;;;;;;0.50;0.50;;;;;;;-142.25;100.00;58004.16;5042002;28;20365;-60
2022/12/06 05:39:41;;;;;;;0.77;0.77;;;;;;;-142.25;100.00;58004.16;5034922;28;20185;-63
2022/12/06 05:42:07;;;;;;;1.03;0.80;;;;;;;-142.25;100.00;58004.16;5037365;28;20040;-60
2022/12/06 05:44:33;;;;;;;0.90;0.90;;;;;;;-142.25;100.00;58004.16;5043625;28;20053;-63
2022/12/06 05:46:59;;;;;;;1.43;0.90;;;;;;;-142.25;100.00;58004.16;5030122;28;20178;-60
2022/12/06 05:49:25;;;;;;;1.60;1.50;;;;;;;-142.25;100.00;58004.16;5028487;28;20586;-60
2022/12/06 05:51:50;;;;;;;3.93;0.93;;;;;;;-142.25;100.00;58004.16;5034495;28;20053;-60
2022/12/06 05:54:17;;;;;;;1.10;0.90;;;;;;;-142.25;100.00;58004.16;5031561;28;20572;-61
2022/12/06 05:56:43;;;;;;;0.80;0.80;;;;;;;-142.25;100.00;58004.16;5026802;28;20045;-59
2022/12/06 05:59:09;;;;;;;0.70;0.70;;;;;;;-142.25;100.00;58004.16;5027971;28;20045;-59
2022/12/06 06:01:35;;;;;;;0.70;0.70;;;;;;;-142.25;100.00;58004.16;5042008;28;21082;-60
2022/12/06 06:04:01;;;;;;;0.93;0.80;;;;;;;-142.25;100.00;58004.16;5027325;28;20048;-59
2022/12/06 06:06:27;;;;;;;2.17;1.77;;;;;;;-142.25;100.00;58004.16;5032951;28;20053;-60
2022/12/06 06:08:53;;;;;;;1.17;1.00;;;;;;;-142.25;100.00;58004.16;5026405;28;20399;-60
2022/12/06 06:11:19;;;;;;;0.73;0.60;;;;;;;-142.25;100.00;58004.16;5034456;28;20064;-59
2022/12/06 06:13:45;;;;;;;0.70;0.70;;;;;;;-142.25;100.00;58004.16;5033201;28;20405;-58
2022/12/06 06:16:11;;;;;;;0.63;0.63;;;;;;;-142.25;100.00;58004.16;5036536;28;20041;-59
2022/12/06 06:18:37;;;;;;;0.90;0.90;;;;;;;-142.25;100.00;58004.16;5034995;28;20500;-61
2022/12/06 06:21:02;;;;;;;1.33;0.97;;;;;;;-142.25;100.00;58004.16;5037064;28;20037;-60
2022/12/06 06:23:28;;;;;;;0.80;0.80;;;;;;;-142.25;100.00;58004.16;5034693;28;20077;-60
2022/12/06 06:25:55;;;;;;;0.80;0.80;;;;;;;-142.25;100.00;58004.16;5042348;28;20094;-60
2022/12/06 06:28:21;;;;;;;1.00;0.90;;;;;;;-142.25;100.00;58004.16;5032577;28;20122;-59
2022/12/06 06:30:47;;;;;;;0.77;0.77;;;;;;;-142.25;100.00;58004.16;5032444;28;20041;-61
2022/12/06 06:33:13;;;;;;;1.10;1.00;;;;;;;-142.25;100.00;58004.16;5032388;28;20044;-62
2022/12/06 06:35:39;;;;;;;1.10;1.00;;;;;;;-142.25;100.00;58004.16;5046766;28;20036;-60
2022/12/06 06:38:05;;;;;;;1.53;1.43;;;;;;;-142.25;100.00;58004.16;5031814;28;20849;-59
2022/12/06 06:40:31;;;;;;;1.47;1.17;;;;;;;-142.25;100.00;58004.16;5032840;28;20065;-61
2022/12/06 06:42:57;;;;;;;1.10;0.90;;;;;;;-142.25;100.00;58004.16;5031866;28;20473;-60
2022/12/06 06:45:24;;;;;;;1.23;1.00;;;;;;;-142.25;100.00;58004.16;5031949;28;20034;-60
2022/12/06 06:47:49;;;;;;;1.03;1.03;;;;;;;-142.25;100.00;58004.16;5040929;28;20046;-60
2022/12/06 06:50:16;;;;;;;1.20;1.07;;;;;;;-142.25;100.00;58004.16;5023494;28;20049;-60
2022/12/06 06:52:41;;;;;;;1.00;1.00;;;;;;;-142.25;100.00;58004.16;5031312;28;20034;-60
2022/12/06 06:55:08;;;;;;;1.50;1.10;;;;;;;-142.25;100.00;58004.16;5046349;28;20155;-60
2022/12/06 06:57:35;;;;;;;1.00;0.90;;;;;;;-142.25;100.00;58004.16;5026806;28;20056;-62
2022/12/06 07:00:03;;;;;;;2.03;1.23;;;;;;;-142.25;100.00;58004.16;5027866;28;20049;-60
2022/12/06 07:02:28;;;;;;;1.43;1.33;;;;;;;-142.25;100.00;58004.16;5024836;28;20041;-62
2022/12/06 07:04:57;;;;;;;1.87;1.67;;;;;;;-142.25;100.00;58004.16;5025740;28;20087;-60
2022/12/06 07:07:22;;;;;;;2.73;2.53;;;;;;;-142.25;100.00;58004.16;5025632;28;20452;-59
2022/12/06 07:09:48;;;;;;;1.43;1.30;;;;;;;-142.25;100.00;58004.16;5028595;28;20037;-60
2022/12/06 07:12:14;;;;;;;1.30;1.20;;;;;;;-142.25;100.00;58004.16;5033066;28;20116;-59
2022/12/06 07:14:39;;;;;;;3.57;1.77;;;;;;;-142.25;100.00;58004.16;5031583;28;20041;-60
2022/12/06 07:17:05;;;;;;;3.87;2.67;;;;;;;-142.25;100.00;58004.16;5026962;28;20080;-60
2022/12/06 07:19:30;;;;;;;2.93;1.90;;;;;;;-142.25;100.00;58004.16;5030260;28;20544;-60
2022/12/06 07:21:56;;;;;;;1.50;1.40;;;;;;;-142.25;100.00;58004.16;5033873;28;20532;-60
2022/12/06 07:24:22;;;;;;;2.50;1.90;;;;;;;-142.25;100.00;58004.16;5031833;28;20128;-61
2022/12/06 07:26:47;;;;;;;5.63;4.30;;;;;;;-142.25;100.00;58004.16;5030297;28;20531;-61
2022/12/06 07:29:13;;;;;;;5.43;3.50;;;;;;;-142.25;100.00;58004.16;5030745;28;20045;-61
2022/12/06 07:31:39;;;;;;;3.73;3.27;;;;;;;-142.25;100.00;58004.16;5031798;28;20124;-60
2022/12/06 07:34:06;;;;;;;4.20;3.07;;;;;;;-142.25;100.00;58004.16;5032593;28;20100;-60
2022/12/06 07:36:31;;;;;;;2.90;2.07;;;;;;;-142.25;100.00;58004.16;5031456;28;20128;-61
2022/12/06 07:38:59;;;;;;;1.70;1.60;;;;;;;-142.25;100.00;58004.16;5031691;28;20053;-59
2022/12/06 07:47:10;;;;;;;1.60;1.50;;;;;;;-142.25;100.00;58004.16;5031188;28;20076;-64
2022/12/06 07:49:36;;;;;;;1.77;1.60;;;;;;;-142.25;100.00;58004.16;5031272;28;21334;-57
2022/12/06 07:52:02;;;;;;;1.53;1.20;;;;;;;-142.25;100.00;58004.16;5030144;28;20056;-60
2022/12/06 07:54:27;;;;;;;1.60;1.50;;;;;;;-142.25;100.00;58004.16;5028953;28;20120;-59
2022/12/06 07:56:55;;;;;;;1.20;1.10;;;;;;;-142.25;100.00;58004.16;5031427;28;20669;-60
2022/12/06 07:59:21;;;;;;;1.13;1.03;;;;;;;-142.25;100.00;58004.16;5025942;28;20131;-60
2022/12/06 08:01:47;;;;;;;0.80;0.80;;;;;;;-142.25;100.00;58004.16;5025239;28;20044;-60
2022/12/06 08:04:12;;;;;;;1.07;0.80;;;;;;;-142.25;100.00;58004.16;5027337;28;20404;-60
2022/12/06 08:06:39;;;;;;;1.47;0.97;;;;;;;-142.25;100.00;58004.16;5025198;28;20474;-60
2022/12/06 08:09:06;;;;;;;1.10;1.10;;;;;;;-142.25;100.00;58004.16;5030312;28;20049;-60
2022/12/06 08:11:31;;;;;;;1.10;0.90;;;;;;;-142.25;100.00;58004.16;5025563;28;20120;-58
2022/12/06 08:13:57;;;;;;;0.77;0.77;;;;;;;-142.25;100.00;58004.16;5026991;28;20315;-59
2022/12/06 08:16:22;;;;;;;0.70;0.70;;;;;;;-142.25;100.00;58004.16;5030210;28;20579;-59
2022/12/06 08:18:48;;;;;;;1.23;0.90;;;;;;;-142.25;100.00;58004.16;5031529;28;20053;-59
2022/12/06 08:21:15;;;;;;;0.90;0.90;;;;;;;-142.25;100.00;58004.16;5033565;28;20633;-58
2022/12/06 08:23:41;;;;;;;0.83;0.83;;;;;;;-142.25;100.00;58004.16;5034055;28;20033;-58
2022/12/06 08:26:11;;;;;;;1.00;0.90;;;;;;;-142.25;100.00;58004.16;5034356;28;20049;-58
2022/12/06 08:28:37;;;;;;;0.70;0.70;;;;;;;-142.25;100.00;58004.16;5034895;28;20090;-59
2022/12/06 08:31:14;;;;;;;1.00;0.83;;;;;;;-142.25;100.00;58004.16;5034077;28;20071;-61
2022/12/06 08:33:40;;;;;;;0.80;0.80;;;;;;;-142.25;100.00;58004.16;5029998;28;20041;-60
2022/12/06 08:36:11;;;;;;;0.90;0.90;;;;;;;-142.25;100.00;58004.16;5029312;28;20096;-61
2022/12/06 08:38:38;;;;;;;1.73;1.13;;;;;;;-142.25;100.00;58004.16;5034417;28;20053;-61
2022/12/06 08:43:52;;;;;;;1.20;1.10;;;;;;;-142.25;100.00;58004.16;5036360;28;20063;-58
2022/12/06 08:46:18;;;;;;;0.80;0.80;;;;;;;-142.25;100.00;58004.16;5035026;28;20092;-62
2022/12/06 08:48:43;;;;;;;0.60;0.60;;;;;;;-142.25;100.00;58004.16;5035237;28;20148;-61
2022/12/06 08:51:09;;;;;;;0.60;0.60;;;;;;;-142.25;100.00;58004.16;5035075;28;20045;-58
2022/12/06 08:53:35;;;;;;;1.07;0.97;;;;;;;-142.25;100.00;58004.16;5034860;28;20076;-60
2022/12/06 08:56:00;;;;;;;1.87;0.70;;;;;;;-142.25;100.00;58004.16;5034156;28;20067;-61
2022/12/06 08:58:26;;;;;;;0.80;0.80;;;;;;;-142.25;100.00;58004.16;5036038;28;20128;-60
2022/12/06 09:00:52;;;;;;;1.20;0.90;;;;;;;-142.25;100.00;58004.16;5034590;28;20689;-64
2022/12/06 09:03:17;;;;;;;1.33;0.90;;;;;;;-142.25;100.00;58004.16;5034791;28;20063;-60
2022/12/06 09:05:43;;;;;;;1.10;1.00;;;;;;;-142.25;100.00;58004.16;5035282;28;20044;-63
2022/12/06 09:08:08;;;;;;;0.90;0.70;;;;;;;-142.25;100.00;58004.16;5035042;28;20242;-59
2022/12/06 09:10:34;;;;;;;0.67;0.67;;;;;;;-142.25;100.00;58004.16;5034518;28;20712;-61
2022/12/06 09:13:00;;;;;;;1.00;0.70;;;;;;;-142.25;100.00;58004.16;5035119;28;20042;-63
2022/12/06 09:15:25;;;;;;;0.60;0.60;;;;;;;-142.25;100.00;58004.16;5049717;28;20045;-62
2022/12/06 09:17:51;;;;;;;0.70;0.70;;;;;;;-142.25;100.00;58004.16;5034231;28;20132;-62
2022/12/06 09:20:19;;;;;;;1.10;0.90;;;;;;;-142.25;100.00;58004.16;5035051;28;20049;-62
2022/12/06 09:22:44;;;;;;;2.70;1.20;;;;;;;-142.25;100.00;58004.16;5035774;28;20060;-62
2022/12/06 09:25:10;;;;;;;1.43;1.10;;;;;;;-142.25;100.00;58004.16;5034661;28;20044;-63
2022/12/06 09:27:37;;;;;;;1.67;1.33;;;;;;;-142.25;100.00;58004.16;5032369;28;20068;-61
2022/12/06 09:30:04;;;;;;;1.67;1.57;;;;;;;-142.25;100.00;58004.16;5034161;28;20402;-63
2022/12/06 09:32:29;;;;;;;1.13;1.13;;;;;;;-142.25;100.00;58004.16;5033173;28;20045;-63
2022/12/06 09:34:55;;;;;;;1.20;1.10;;;;;;;-142.25;100.00;58004.16;5034116;28;20087;-61
2022/12/06 09:37:21;;;;;;;1.30;1.20;;;;;;;-142.25;100.00;58004.16;5034786;28;20044;-62
2022/12/06 09:39:55;;;;;;;3.33;1.20;;;;;;;-142.25;100.00;58004.16;5041074;28;20095;-61
2022/12/06 09:42:25;;;;;;;1.93;1.20;;;;;;;-142.25;100.00;58004.16;5033213;28;20582;-60
2022/12/06 09:45:11;;;;;;;1.60;1.40;;;;;;;-142.25;100.00;58004.16;5035968;28;20774;-60
2022/12/06 09:47:40;;;;;;;;;;;;;;;-142.25;100.00;58004.16;5034990;28;20045;-60
2022/12/06 09:50:28;;;;;;;1.20;1.10;;;;;;;-142.25;100.00;58004.16;5030670;28;19920;-63
2022/12/06 09:53:22;;;;;;;1.40;1.00;;;;;;;-142.25;100.00;58004.16;5028290;28;20095;-62
2022/12/06 09:56:19;;;;;;;1.13;1.03;;;;;;;-142.25;100.00;58004.16;5029474;28;20048;-64
2022/12/06 09:59:27;;;;;;;1.40;1.30;;;;;;;-142.25;100.00;58004.16;5025822;28;20471;-65
2022/12/06 10:02:18;;;;;;;1.50;1.40;;;;;;;-142.25;100.00;58004.16;5007472;28;20071;-65
2022/12/06 10:05:25;;;;;;;1.40;1.30;;;;;;;-142.25;100.00;58004.16;5012922;28;20095;-63
2022/12/06 10:08:17;;;;;;;1.33;1.23;;;;;;;-142.25;100.00;58004.16;5014385;28;20069;-64
2022/12/06 10:11:06;;;;;;;1.47;1.37;;;;;;;-142.25;100.00;58004.16;4986128;28;20512;-62
2022/12/06 10:13:43;;;;;;;2.30;1.70;;;;;;;-142.25;100.00;58004.16;5014235;28;20053;-62
2022/12/06 10:16:20;;;;;;;2.10;1.90;;;;;;;-142.25;100.00;58004.16;5013692;28;20070;-62
2022/12/06 10:19:10;;;;;;;2.47;1.83;;;;;;;-142.25;100.00;58004.16;5014692;28;20650;-61
2022/12/06 10:21:54;;;;;;;2.00;1.80;;;;;;;-142.25;100.00;58004.16;5012893;28;20046;-63
2022/12/06 10:25:01;;;;;;;2.47;1.73;;;;;;;-142.25;100.00;58004.16;5011632;28;20045;-63
2022/12/06 10:27:37;;;;;;;1.73;1.50;;;;;;;-142.25;100.00;58004.16;5007154;28;20041;-61
2022/12/06 10:30:09;;;;;;;5.80;1.77;;;;;;;-142.25;100.00;58004.16;5010244;28;20140;-62
2022/12/06 10:33:04;;;;;;;5.80;4.07;;;;;;;-142.25;100.00;58004.16;5013681;28;20057;-63
2022/12/06 10:35:32;;;;;;;2.70;2.03;;;;;;;-142.25;100.00;58004.16;5012543;28;20052;-63
2022/12/06 10:38:23;;;;;;;3.50;1.80;;;;;;;-142.25;100.00;58004.16;5015031;28;20046;-63
2022/12/06 10:41:22;;;;;;;1.67;1.57;;;;;;;-142.25;100.00;58004.16;5041016;28;20039;-62
2022/12/06 10:44:01;;;;;;;1.43;1.33;;;;;;;-142.25;100.00;58004.16;5033718;28;20049;-62
2022/12/06 10:47:05;;;;;;;4.23;1.80;;;;;;;-142.25;100.00;58004.16;5031428;28;20526;-63
2022/12/06 10:50:07;;;;;;;2.80;2.50;;;;;;;-142.25;100.00;58004.16;5031380;28;20079;-63
2022/12/06 10:53:00;;;;;;;7.17;2.73;;;;;;;-142.25;100.00;58004.16;5005831;28;20682;-63
2022/12/06 10:55:32;;;;;;;6.00;3.63;;;;;;;-142.25;100.00;58004.16;5009159;28;20536;-64
2022/12/06 10:58:35;;;;;;;2.53;2.27;;;;;;;-142.25;100.00;58004.16;5011553;28;20574;-63
2022/12/06 11:01:13;;;;;;;3.63;2.80;;;;;;;-142.25;100.00;58004.16;5012850;28;20042;-62
2022/12/06 11:03:43;;;;;;;2.40;1.70;;;;;;;-142.25;100.00;58004.16;5012543;28;20073;-63
2022/12/06 11:06:16;;;;;;;6.57;2.33;;;;;;;-142.25;100.00;58004.16;5006056;28;20603;-63
2022/12/06 11:08:55;;;;;;;3.60;2.53;;;;;;;-142.25;100.00;58004.16;5006856;28;20164;-63
2022/12/06 11:11:29;;;;;;;2.50;2.40;;;;;;;-142.25;100.00;58004.16;5011769;28;20042;-62
2022/12/06 11:14:02;;;;;;;5.80;2.55;;;;;;;-142.25;100.00;58004.16;5013018;28;20116;-63
2022/12/06 11:16:42;;;;;;;3.23;2.77;;;;;;;-142.25;100.00;58004.16;5010902;28;20091;-67
2022/12/06 11:19:22;;;;;;;4.77;2.83;;;;;;;-142.25;100.00;58004.16;5007715;28;20404;-60
2022/12/06 11:22:22;;;;;;;3.57;3.27;;;;;;;-142.25;100.00;58004.16;5003924;28;20049;-61
2022/12/06 11:25:02;;;;;;;6.40;3.73;;;;;;;-142.25;100.00;58004.16;4946996;28;20057;-62
2022/12/06 11:27:33;;;;;;;5.90;3.50;;;;;;;-142.25;100.00;58004.16;4957247;28;20502;-62
2022/12/06 11:30:01;;;;;;;6.63;3.33;;;;;;;-142.25;100.00;58004.16;4953975;28;20086;-64
2022/12/06 11:32:27;;;;;;;4.33;3.20;;;;;;;-142.25;100.00;58004.16;4947914;28;20043;-60
2022/12/06 11:34:55;;;;;;;2.60;2.27;;;;;;;-142.25;100.00;58004.16;4948984;28;20046;-60
2022/12/06 11:37:24;;;;;;;3.53;3.10;;;;;;;-142.25;100.00;58004.16;4951046;28;20046;-61
2022/12/06 11:40:04;;;;;;;4.70;3.10;;;;;;;-142.25;100.00;58004.16;4947549;28;20053;-61
2022/12/06 11:42:30;;;;;;;3.13;2.63;;;;;;;-142.25;100.00;58004.16;4957385;28;20069;-61
2022/12/06 11:45:02;;;;;;;3.17;2.87;;;;;;;-142.25;100.00;58004.16;4955758;28;20035;-62
2022/12/06 11:47:28;;;;;;;2.87;2.37;;;;;;;-142.25;100.00;58004.16;4953814;28;20055;-60
2022/12/06 11:49:55;;;;;;;4.20;2.87;;;;;;;-142.25;100.00;58004.16;4954802;28;20600;-61
2022/12/06 11:52:24;;;;;;;3.20;2.90;;;;;;;-142.25;100.00;58004.16;4955374;28;20150;-60
2022/12/06 11:54:58;;;;;;;4.17;2.93;;;;;;;-142.25;100.00;58004.16;4952553;28;20055;-59